This is the latest recevied weather packets stored in our database for station/object KA3WVU. If no packets are shown the sender has not sent any weather packets the latest 10 day(s).
| Time | Temp. | Humidity | Pressure | Rain* | Wind** | Luminosity | Snow |
|---|---|---|---|---|---|---|---|
| 1777925861 | 20° C | 43% | 1007.8 hPa | 0 mm | - | 290 W/m² | - |
| 1777925558 | 20.56° C | 43% | 1007.8 hPa | 0 mm | - | 291 W/m² | - |
| 1777925256 | 20.56° C | 42% | 1007.9 hPa | 0 mm | - | 344 W/m² | - |
| 1777924951 | 20.56° C | 42% | 1008 hPa | 0 mm | - | 309 W/m² | - |
| 1777924648 | 20° C | 45% | 1007.9 hPa | 0 mm | - | 424 W/m² | - |
| 1777924344 | 19.44° C | 44% | 1008 hPa | 0 mm | - | 472 W/m² | - |
| 1777924041 | 20° C | 42% | 1008 hPa | 0 mm | - | 279 W/m² | - |
| 1777923737 | 21.11° C | 41% | 1008.1 hPa | 0 mm | - | 496 W/m² | - |
| 1777923434 | 20° C | 41% | 1008.1 hPa | 0 mm | - | 584 W/m² | - |
| 1777923132 | 20.56° C | 41% | 1008.3 hPa | 0 mm | - | 627 W/m² | - |
| 1777922830 | 20.56° C | 41% | 1008.2 hPa | 0 mm | - | 443 W/m² | - |
| 1777922528 | 19.44° C | 41% | 1008.5 hPa | 0 mm | - | 122 W/m² | - |
| 1777922226 | 20.56° C | 40% | 1008.6 hPa | 0 mm | - | 65 W/m² | - |
| 1777921922 | 20.56° C | 38% | 1008.5 hPa | 0 mm | - | 374 W/m² | - |
| 1777921618 | 20° C | 41% | 1008.5 hPa | 0 mm | - | 414 W/m² | - |
| 1777921314 | 20° C | 40% | 1008.6 hPa | 0 mm | - | 647 W/m² | - |
| 1777921011 | 20.56° C | 38% | 1008.4 hPa | 0 mm | - | 642 W/m² | - |
| 1777920707 | 20° C | 39% | 1008.6 hPa | 0 mm | - | 533 W/m² | - |
| 1777920404 | 20° C | 38% | 1008.8 hPa | 0 mm | - | 689 W/m² | - |
| 1777920099 | 20.56° C | 37% | 1008.9 hPa | 0 mm | - | 496 W/m² | - |
| 1777919797 | 19.44° C | 40% | 1008.8 hPa | 0 mm | - | 629 W/m² | - |
| 1777919494 | 20.56° C | 38% | 1008.6 hPa | 0 mm | - | 507 W/m² | - |
| 1777919191 | 20.56° C | 38% | 1008.9 hPa | 0 mm | - | 605 W/m² | - |
| 1777918888 | 20° C | 37% | 1008.7 hPa | 0 mm | - | 693 W/m² | - |
| 1777918586 | 20° C | 39% | 1008.9 hPa | 0 mm | - | 676 W/m² | - |
* Rain latest hour (hover to see other rain measurements)
** Current wind speed in m/s (hover to see current wind gust speed)